sensor_id;sensor_type;location;lat;lon;timestamp;pressure;altitude;pressure_sealevel;temperature;humidity
10510;BME280;5303;53.266;10.410;2022-08-21T00:01:54;101408.00;;;17.31;100.00
10510;BME280;5303;53.266;10.410;2022-08-21T00:04:20;101397.38;;;17.21;100.00
10510;BME280;5303;53.266;10.410;2022-08-21T00:06:45;101401.59;;;17.17;100.00
10510;BME280;5303;53.266;10.410;2022-08-21T00:09:11;101393.34;;;17.17;100.00
10510;BME280;5303;53.266;10.410;2022-08-21T00:11:37;101398.84;;;17.17;100.00
10510;BME280;5303;53.266;10.410;2022-08-21T00:14:06;101393.34;;;17.17;100.00
10510;BME280;5303;53.266;10.410;2022-08-21T00:16:31;101384.19;;;17.17;100.00
10510;BME280;5303;53.266;10.410;2022-08-21T00:18:57;101395.22;;;17.17;100.00
10510;BME280;5303;53.266;10.410;2022-08-21T00:21:22;101390.09;;;17.14;100.00
10510;BME280;5303;53.266;10.410;2022-08-21T00:23:48;101390.72;;;17.09;100.00
10510;BME280;5303;53.266;10.410;2022-08-21T00:29:34;101388.06;;;16.94;100.00
10510;BME280;5303;53.266;10.410;2022-08-21T00:32:00;101389.19;;;17.00;100.00
10510;BME280;5303;53.266;10.410;2022-08-21T00:34:25;101388.13;;;17.01;100.00
10510;BME280;5303;53.266;10.410;2022-08-21T00:36:51;101386.13;;;16.88;100.00
10510;BME280;5303;53.266;10.410;2022-08-21T00:39:16;101393.53;;;16.88;100.00
10510;BME280;5303;53.266;10.410;2022-08-21T00:41:42;101391.44;;;16.90;100.00
10510;BME280;5303;53.266;10.410;2022-08-21T00:44:11;101384.25;;;16.89;100.00
10510;BME280;5303;53.266;10.410;2022-08-21T00:46:37;101386.34;;;16.87;100.00
10510;BME280;5303;53.266;10.410;2022-08-21T00:49:05;101395.00;;;16.84;100.00
10510;BME280;5303;53.266;10.410;2022-08-21T00:51:39;101379.34;;;16.84;100.00
10510;BME280;5303;53.266;10.410;2022-08-21T00:54:07;101387.53;;;16.77;100.00
10510;BME280;5303;53.266;10.410;2022-08-21T00:56:34;101387.75;;;16.76;100.00
10510;BME280;5303;53.266;10.410;2022-08-21T00:59:01;101386.41;;;16.72;100.00
10510;BME280;5303;53.266;10.410;2022-08-21T01:01:26;101387.69;;;16.69;100.00
10510;BME280;5303;53.266;10.410;2022-08-21T01:03:52;101385.97;;;16.68;100.00
10510;BME280;5303;53.266;10.410;2022-08-21T01:06:17;101391.47;;;16.68;100.00
10510;BME280;5303;53.266;10.410;2022-08-21T01:08:43;101390.63;;;16.68;100.00
10510;BME280;5303;53.266;10.410;2022-08-21T01:11:08;101393.19;;;16.69;100.00
10510;BME280;5303;53.266;10.410;2022-08-21T01:13:37;101392.69;;;16.66;100.00
10510;BME280;5303;53.266;10.410;2022-08-21T01:16:08;101386.81;;;16.69;100.00
10510;BME280;5303;53.266;10.410;2022-08-21T01:18:34;101388.97;;;16.73;100.00
10510;BME280;5303;53.266;10.410;2022-08-21T01:21:11;101388.31;;;16.71;100.00
10510;BME280;5303;53.266;10.410;2022-08-21T01:23:39;101391.84;;;16.65;100.00
10510;BME280;5303;53.266;10.410;2022-08-21T01:26:05;101386.56;;;16.64;100.00
10510;BME280;5303;53.266;10.410;2022-08-21T01:28:35;101390.16;;;16.64;100.00
10510;BME280;5303;53.266;10.410;2022-08-21T01:31:02;101390.56;;;16.61;100.00
10510;BME280;5303;53.266;10.410;2022-08-21T01:33:29;101392.16;;;16.49;100.00
10510;BME280;5303;53.266;10.410;2022-08-21T01:35:55;101393.38;;;16.46;100.00
10510;BME280;5303;53.266;10.410;2022-08-21T01:38:21;101395.28;;;16.46;100.00
10510;BME280;5303;53.266;10.410;2022-08-21T01:40:46;101390.84;;;16.45;100.00
10510;BME280;5303;53.266;10.410;2022-08-21T01:43:11;101389.34;;;16.42;100.00
10510;BME280;5303;53.266;10.410;2022-08-21T01:45:37;101384.25;;;16.39;100.00
10510;BME280;5303;53.266;10.410;2022-08-21T01:48:02;101389.16;;;16.44;100.00
10510;BME280;5303;53.266;10.410;2022-08-21T01:50:28;101389.56;;;16.41;100.00
10510;BME280;5303;53.266;10.410;2022-08-21T01:52:53;101387.59;;;16.35;100.00
10510;BME280;5303;53.266;10.410;2022-08-21T01:55:19;101387.66;;;16.20;100.00
10510;BME280;5303;53.266;10.410;2022-08-21T01:57:45;101390.53;;;16.12;100.00
10510;BME280;5303;53.266;10.410;2022-08-21T02:00:13;101380.19;;;16.14;100.00
10510;BME280;5303;53.266;10.410;2022-08-21T02:02:40;101386.75;;;16.13;100.00
10510;BME280;5303;53.266;10.410;2022-08-21T02:05:07;101391.00;;;16.15;100.00
10510;BME280;5303;53.266;10.410;2022-08-21T02:07:39;101383.78;;;16.14;100.00
10510;BME280;5303;53.266;10.410;2022-08-21T02:10:06;101383.22;;;16.19;100.00
10510;BME280;5303;53.266;10.410;2022-08-21T02:12:32;101389.34;;;16.21;100.00
10510;BME280;5303;53.266;10.410;2022-08-21T02:14:57;101384.72;;;16.21;100.00
10510;BME280;5303;53.266;10.410;2022-08-21T02:17:22;101382.16;;;16.20;100.00
10510;BME280;5303;53.266;10.410;2022-08-21T02:19:49;101380.63;;;16.17;100.00
10510;BME280;5303;53.266;10.410;2022-08-21T02:22:15;101375.81;;;16.19;100.00
10510;BME280;5303;53.266;10.410;2022-08-21T02:24:40;101381.13;;;15.99;100.00
10510;BME280;5303;53.266;10.410;2022-08-21T02:27:05;101378.41;;;15.84;100.00
10510;BME280;5303;53.266;10.410;2022-08-21T02:29:31;101379.63;;;15.82;100.00
10510;BME280;5303;53.266;10.410;2022-08-21T02:31:56;101373.75;;;15.85;100.00
10510;BME280;5303;53.266;10.410;2022-08-21T02:34:21;101371.41;;;15.82;100.00
10510;BME280;5303;53.266;10.410;2022-08-21T02:36:46;101370.38;;;15.83;100.00
10510;BME280;5303;53.266;10.410;2022-08-21T02:39:12;101369.41;;;15.76;100.00
10510;BME280;5303;53.266;10.410;2022-08-21T02:41:37;101367.03;;;15.88;100.00
10510;BME280;5303;53.266;10.410;2022-08-21T02:44:02;101368.41;;;15.77;100.00
10510;BME280;5303;53.266;10.410;2022-08-21T02:46:28;101365.19;;;15.73;100.00
10510;BME280;5303;53.266;10.410;2022-08-21T02:48:53;101360.81;;;15.64;100.00
10510;BME280;5303;53.266;10.410;2022-08-21T02:51:19;101365.13;;;15.67;100.00
10510;BME280;5303;53.266;10.410;2022-08-21T02:53:46;101357.88;;;15.66;100.00
10510;BME280;5303;53.266;10.410;2022-08-21T02:56:14;101365.13;;;15.67;100.00
10510;BME280;5303;53.266;10.410;2022-08-21T02:58:46;101365.13;;;15.67;100.00
10510;BME280;5303;53.266;10.410;2022-08-21T03:01:12;101361.47;;;15.66;100.00
10510;BME280;5303;53.266;10.410;2022-08-21T03:03:40;101365.47;;;15.64;100.00
10510;BME280;5303;53.266;10.410;2022-08-21T03:06:07;101360.53;;;15.59;100.00
10510;BME280;5303;53.266;10.410;2022-08-21T03:08:33;101360.75;;;15.57;100.00
10510;BME280;5303;53.266;10.410;2022-08-21T03:10:58;101357.63;;;15.60;100.00
10510;BME280;5303;53.266;10.410;2022-08-21T03:13:25;101358.84;;;15.58;100.00
10510;BME280;5303;53.266;10.410;2022-08-21T03:15:51;101360.19;;;15.47;100.00
10510;BME280;5303;53.266;10.410;2022-08-21T03:18:17;101355.75;;;15.46;100.00
10510;BME280;5303;53.266;10.410;2022-08-21T03:20:43;101354.50;;;15.49;100.00
10510;BME280;5303;53.266;10.410;2022-08-21T03:23:10;101352.03;;;15.69;100.00
10510;BME280;5303;53.266;10.410;2022-08-21T03:25:35;101356.34;;;15.42;100.00
10510;BME280;5303;53.266;10.410;2022-08-21T03:28:03;101359.22;;;15.55;100.00
10510;BME280;5303;53.266;10.410;2022-08-21T03:30:28;101361.22;;;15.46;100.00
10510;BME280;5303;53.266;10.410;2022-08-21T03:32:56;101369.69;;;15.30;100.00
10510;BME280;5303;53.266;10.410;2022-08-21T03:35:22;101365.41;;;15.27;100.00
10510;BME280;5303;53.266;10.410;2022-08-21T03:37:47;101369.97;;;15.20;100.00
10510;BME280;5303;53.266;10.410;2022-08-21T03:40:15;101358.53;;;15.31;100.00
10510;BME280;5303;53.266;10.410;2022-08-21T03:42:41;101359.66;;;15.22;100.00
10510;BME280;5303;53.266;10.410;2022-08-21T03:45:07;101358.31;;;15.48;100.00
10510;BME280;5303;53.266;10.410;2022-08-21T03:47:33;101355.91;;;15.59;100.00
10510;BME280;5303;53.266;10.410;2022-08-21T03:49:58;101360.31;;;15.24;100.00
10510;BME280;5303;53.266;10.410;2022-08-21T03:52:24;101357.78;;;15.23;100.00
10510;BME280;5303;53.266;10.410;2022-08-21T03:54:49;101356.78;;;15.45;100.00
10510;BME280;5303;53.266;10.410;2022-08-21T03:57:16;101355.81;;;15.53;100.00
10510;BME280;5303;53.266;10.410;2022-08-21T03:59:41;101357.63;;;15.60;100.00
10510;BME280;5303;53.266;10.410;2022-08-21T04:02:09;101364.47;;;15.35;100.00
10510;BME280;5303;53.266;10.410;2022-08-21T04:04:35;101356.50;;;15.55;100.00
10510;BME280;5303;53.266;10.410;2022-08-21T04:07:00;101352.97;;;15.61;100.00
10510;BME280;5303;53.266;10.410;2022-08-21T04:09:26;101354.50;;;15.64;100.00
10510;BME280;5303;53.266;10.410;2022-08-21T04:11:52;101356.66;;;15.68;100.00
10510;BME280;5303;53.266;10.410;2022-08-21T04:14:18;101354.22;;;15.73;100.00
10510;BME280;5303;53.266;10.410;2022-08-21T04:16:44;101353.75;;;15.70;100.00
10510;BME280;5303;53.266;10.410;2022-08-21T04:19:10;101362.63;;;15.72;100.00
10510;BME280;5303;53.266;10.410;2022-08-21T04:21:37;101367.47;;;15.70;100.00
10510;BME280;5303;53.266;10.410;2022-08-21T04:24:04;101364.41;;;15.65;100.00
10510;BME280;5303;53.266;10.410;2022-08-21T04:26:29;101367.25;;;15.56;100.00
10510;BME280;5303;53.266;10.410;2022-08-21T04:28:56;101364.72;;;15.55;100.00
10510;BME280;5303;53.266;10.410;2022-08-21T04:31:22;101363.66;;;15.56;100.00
10510;BME280;5303;53.266;10.410;2022-08-21T04:33:47;101372.38;;;15.59;100.00
10510;BME280;5303;53.266;10.410;2022-08-21T04:39:34;101373.44;;;15.58;100.00
10510;BME280;5303;53.266;10.410;2022-08-21T04:42:00;101369.44;;;15.61;100.00
10510;BME280;5303;53.266;10.410;2022-08-21T04:44:25;101367.94;;;15.58;100.00
10510;BME280;5303;53.266;10.410;2022-08-21T04:46:50;101379.50;;;15.54;100.00
10510;BME280;5303;53.266;10.410;2022-08-21T04:49:16;101376.94;;;15.67;100.00
10510;BME280;5303;53.266;10.410;2022-08-21T04:51:41;101378.25;;;15.56;100.00
10510;BME280;5303;53.266;10.410;2022-08-21T04:54:10;101376.63;;;15.62;100.00
10510;BME280;5303;53.266;10.410;2022-08-21T04:56:40;101379.31;;;15.70;100.00
10510;BME280;5303;53.266;10.410;2022-08-21T04:59:14;101379.31;;;15.70;100.00
10510;BME280;5303;53.266;10.410;2022-08-21T05:01:41;101387.16;;;15.73;100.00
10510;BME280;5303;53.266;10.410;2022-08-21T05:04:13;101387.41;;;15.78;100.00
10510;BME280;5303;53.266;10.410;2022-08-21T05:06:40;101386.97;;;15.75;100.00
10510;BME280;5303;53.266;10.410;2022-08-21T05:09:07;101385.59;;;15.86;100.00
10510;BME280;5303;53.266;10.410;2022-08-21T05:11:34;101384.63;;;15.93;100.00
10510;BME280;5303;53.266;10.410;2022-08-21T05:14:00;101389.91;;;15.95;100.00
10510;BME280;5303;53.266;10.410;2022-08-21T05:16:25;101384.38;;;16.10;100.00
10510;BME280;5303;53.266;10.410;2022-08-21T05:18:51;101387.88;;;16.18;100.00
10510;BME280;5303;53.266;10.410;2022-08-21T05:21:17;101387.88;;;16.18;100.00
10510;BME280;5303;53.266;10.410;2022-08-21T05:23:42;101391.31;;;16.05;100.00
10510;BME280;5303;53.266;10.410;2022-08-21T05:26:07;101389.88;;;16.10;100.00
10510;BME280;5303;53.266;10.410;2022-08-21T05:28:33;101391.78;;;16.09;100.00
10510;BME280;5303;53.266;10.410;2022-08-21T05:30:58;101394.38;;;16.17;100.00
10510;BME280;5303;53.266;10.410;2022-08-21T05:33:24;101393.16;;;16.20;100.00
10510;BME280;5303;53.266;10.410;2022-08-21T05:39:11;101399.28;;;16.43;100.00
10510;BME280;5303;53.266;10.410;2022-08-21T05:41:37;101387.50;;;16.49;100.00
10510;BME280;5303;53.266;10.410;2022-08-21T05:44:02;101388.88;;;16.60;100.00
10510;BME280;5303;53.266;10.410;2022-08-21T05:46:28;101396.56;;;16.71;100.00
10510;BME280;5303;53.266;10.410;2022-08-21T05:48:53;101394.56;;;16.80;100.00
10510;BME280;5303;53.266;10.410;2022-08-21T05:51:18;101393.63;;;16.73;100.00
10510;BME280;5303;53.266;10.410;2022-08-21T05:53:44;101380.13;;;16.78;100.00
10510;BME280;5303;53.266;10.410;2022-08-21T05:56:10;101383.59;;;16.87;100.00
10510;BME280;5303;53.266;10.410;2022-08-21T05:58:36;101384.47;;;16.94;100.00
10510;BME280;5303;53.266;10.410;2022-08-21T06:01:02;101387.72;;;17.04;100.00
10510;BME280;5303;53.266;10.410;2022-08-21T06:03:34;101383.13;;;17.11;100.00
10510;BME280;5303;53.266;10.410;2022-08-21T06:06:00;101389.91;;;17.15;100.00
10510;BME280;5303;53.266;10.410;2022-08-21T06:08:26;101398.59;;;17.12;100.00
10510;BME280;5303;53.266;10.410;2022-08-21T06:10:54;101379.50;;;17.11;100.00
10510;BME280;5303;53.266;10.410;2022-08-21T06:13:21;101385.34;;;17.29;100.00
10510;BME280;5303;53.266;10.410;2022-08-21T06:15:47;101382.59;;;17.36;100.00
10510;BME280;5303;53.266;10.410;2022-08-21T06:18:12;101384.31;;;17.37;100.00
10510;BME280;5303;53.266;10.410;2022-08-21T06:20:39;101378.66;;;17.52;100.00
10510;BME280;5303;53.266;10.410;2022-08-21T06:23:04;101379.78;;;17.64;100.00
10510;BME280;5303;53.266;10.410;2022-08-21T06:25:30;101380.28;;;17.81;100.00
10510;BME280;5303;53.266;10.410;2022-08-21T06:28:08;101380.72;;;17.91;100.00
10510;BME280;5303;53.266;10.410;2022-08-21T06:30:36;101387.75;;;18.00;100.00
10510;BME280;5303;53.266;10.410;2022-08-21T06:33:02;101393.69;;;18.10;100.00
10510;BME280;5303;53.266;10.410;2022-08-21T06:35:28;101388.00;;;18.25;100.00
10510;BME280;5303;53.266;10.410;2022-08-21T06:37:54;101388.22;;;18.24;100.00
10510;BME280;5303;53.266;10.410;2022-08-21T06:40:20;101385.91;;;18.27;100.00
10510;BME280;5303;53.266;10.410;2022-08-21T06:42:45;101393.34;;;18.27;100.00
10510;BME280;5303;53.266;10.410;2022-08-21T06:45:10;101392.28;;;18.41;100.00
10510;BME280;5303;53.266;10.410;2022-08-21T06:47:36;101395.44;;;18.51;100.00
10510;BME280;5303;53.266;10.410;2022-08-21T06:50:01;101391.44;;;18.60;100.00
10510;BME280;5303;53.266;10.410;2022-08-21T06:52:27;101378.06;;;18.64;100.00
10510;BME280;5303;53.266;10.410;2022-08-21T06:54:53;101387.59;;;18.68;100.00
10510;BME280;5303;53.266;10.410;2022-08-21T06:57:18;101382.53;;;18.78;100.00
10510;BME280;5303;53.266;10.410;2022-08-21T06:59:43;101383.38;;;18.92;100.00
10510;BME280;5303;53.266;10.410;2022-08-21T07:02:10;101374.00;;;19.00;100.00
10510;BME280;5303;53.266;10.410;2022-08-21T07:04:35;101376.13;;;19.04;100.00
10510;BME280;5303;53.266;10.410;2022-08-21T07:07:01;101368.44;;;19.20;100.00
10510;BME280;5303;53.266;10.410;2022-08-21T07:09:26;101361.81;;;19.34;100.00
10510;BME280;5303;53.266;10.410;2022-08-21T07:11:55;101353.88;;;19.51;100.00
10510;BME280;5303;53.266;10.410;2022-08-21T07:14:20;101345.09;;;19.61;100.00
10510;BME280;5303;53.266;10.410;2022-08-21T07:16:47;101344.84;;;19.75;100.00
10510;BME280;5303;53.266;10.410;2022-08-21T07:19:12;101342.44;;;19.86;100.00
10510;BME280;5303;53.266;10.410;2022-08-21T07:21:37;101341.72;;;20.04;100.00
10510;BME280;5303;53.266;10.410;2022-08-21T07:24:03;101342.22;;;20.19;100.00
10510;BME280;5303;53.266;10.410;2022-08-21T07:26:28;101335.53;;;20.33;100.00
10510;BME280;5303;53.266;10.410;2022-08-21T07:28:53;101335.06;;;20.36;100.00
10510;BME280;5303;53.266;10.410;2022-08-21T07:31:22;101338.88;;;20.42;100.00
10510;BME280;5303;53.266;10.410;2022-08-21T07:33:48;101327.91;;;20.54;100.00
10510;BME280;5303;53.266;10.410;2022-08-21T07:39:35;101324.56;;;20.70;100.00
10510;BME280;5303;53.266;10.410;2022-08-21T07:42:01;101315.97;;;20.78;100.00
10510;BME280;5303;53.266;10.410;2022-08-21T07:44:28;101315.66;;;20.86;100.00
10510;BME280;5303;53.266;10.410;2022-08-21T07:46:53;101322.00;;;20.93;100.00
10510;BME280;5303;53.266;10.410;2022-08-21T07:49:19;101316.59;;;20.99;100.00
10510;BME280;5303;53.266;10.410;2022-08-21T07:51:44;101312.34;;;20.96;100.00
10510;BME280;5303;53.266;10.410;2022-08-21T07:54:09;101308.66;;;21.02;100.00
10510;BME280;5303;53.266;10.410;2022-08-21T07:56:34;101311.34;;;21.09;100.00
10510;BME280;5303;53.266;10.410;2022-08-21T07:59:00;101309.84;;;21.13;100.00
10510;BME280;5303;53.266;10.410;2022-08-21T08:01:27;101318.63;;;21.10;100.00
10510;BME280;5303;53.266;10.410;2022-08-21T08:03:53;101312.00;;;21.11;100.00
10510;BME280;5303;53.266;10.410;2022-08-21T08:06:18;101313.47;;;21.13;100.00
10510;BME280;5303;53.266;10.410;2022-08-21T08:08:45;101314.47;;;21.19;100.00
10510;BME280;5303;53.266;10.410;2022-08-21T08:11:11;101314.47;;;21.19;100.00
10510;BME280;5303;53.266;10.410;2022-08-21T08:13:41;101309.31;;;21.23;100.00
10510;BME280;5303;53.266;10.410;2022-08-21T08:16:07;101310.50;;;21.27;99.61
10510;BME280;5303;53.266;10.410;2022-08-21T08:18:33;101307.84;;;21.38;100.00
10510;BME280;5303;53.266;10.410;2022-08-21T08:20:58;101301.22;;;21.39;98.21
10510;BME280;5303;53.266;10.410;2022-08-21T08:23:24;101308.50;;;21.52;91.58
10510;BME280;5303;53.266;10.410;2022-08-21T08:25:50;101306.38;;;21.54;86.93
10510;BME280;5303;53.266;10.410;2022-08-21T08:28:15;101304.88;;;21.70;87.51
10510;BME280;5303;53.266;10.410;2022-08-21T08:30:41;101300.91;;;21.78;86.04
10510;BME280;5303;53.266;10.410;2022-08-21T08:33:07;101299.00;;;21.90;84.84
10510;BME280;5303;53.266;10.410;2022-08-21T08:35:32;101306.97;;;21.98;85.97
10510;BME280;5303;53.266;10.410;2022-08-21T08:37:58;101304.56;;;22.02;85.59
10510;BME280;5303;53.266;10.410;2022-08-21T08:40:35;101302.28;;;21.99;85.96
10510;BME280;5303;53.266;10.410;2022-08-21T08:43:03;101305.53;;;21.96;86.36
10510;BME280;5303;53.266;10.410;2022-08-21T08:45:32;101291.56;;;22.02;86.34
10510;BME280;5303;53.266;10.410;2022-08-21T08:48:03;101295.97;;;22.22;86.41
10510;BME280;5303;53.266;10.410;2022-08-21T08:53:02;101295.63;;;22.53;81.96
10510;BME280;5303;53.266;10.410;2022-08-21T08:55:35;101289.09;;;22.60;83.22
10510;BME280;5303;53.266;10.410;2022-08-21T08:58:02;101291.41;;;22.63;83.61
10510;BME280;5303;53.266;10.410;2022-08-21T09:00:28;101281.53;;;22.67;83.80
10510;BME280;5303;53.266;10.410;2022-08-21T09:02:56;101278.84;;;22.72;82.95
10510;BME280;5303;53.266;10.410;2022-08-21T09:05:38;101279.94;;;22.83;83.45
10510;BME280;5303;53.266;10.410;2022-08-21T09:11:18;101270.75;;;23.06;84.17
10510;BME280;5303;53.266;10.410;2022-08-21T09:16:40;101268.34;;;23.38;83.81
10510;BME280;5303;53.266;10.410;2022-08-21T09:23:22;101264.00;;;23.70;79.45
10510;BME280;5303;53.266;10.410;2022-08-21T09:25:20;101261.72;;;23.84;76.70
10510;BME280;5303;53.266;10.410;2022-08-21T09:27:47;101267.56;;;24.00;78.19
10510;BME280;5303;53.266;10.410;2022-08-21T09:30:13;101266.97;;;23.98;76.46
10510;BME280;5303;53.266;10.410;2022-08-21T09:32:39;101263.00;;;24.10;77.34
10510;BME280;5303;53.266;10.410;2022-08-21T09:35:17;101259.53;;;24.20;77.52
10510;BME280;5303;53.266;10.410;2022-08-21T09:38:23;101258.47;;;24.21;76.71
10510;BME280;5303;53.266;10.410;2022-08-21T09:40:57;101263.34;;;24.31;77.82
10510;BME280;5303;53.266;10.410;2022-08-21T09:43:23;101257.84;;;24.36;76.69
10510;BME280;5303;53.266;10.410;2022-08-21T09:46:05;101253.66;;;24.33;75.66
10510;BME280;5303;53.266;10.410;2022-08-21T09:48:45;101253.41;;;24.35;75.48
10510;BME280;5303;53.266;10.410;2022-08-21T09:51:16;101252.63;;;24.39;73.83
10510;BME280;5303;53.266;10.410;2022-08-21T09:53:48;101250.34;;;24.36;75.37
10510;BME280;5303;53.266;10.410;2022-08-21T09:59:36;101247.34;;;24.21;73.79
10510;BME280;5303;53.266;10.410;2022-08-21T10:04:57;101251.69;;;24.17;73.33
10510;BME280;5303;53.266;10.410;2022-08-21T10:07:25;101254.06;;;24.25;71.38
10510;BME280;5303;53.266;10.410;2022-08-21T10:10:18;101248.25;;;24.27;72.16
10510;BME280;5303;53.266;10.410;2022-08-21T10:21:02;101245.53;;;24.66;69.61
10510;BME280;5303;53.266;10.410;2022-08-21T10:23:57;101240.84;;;24.71;68.65
10510;BME280;5303;53.266;10.410;2022-08-21T10:26:52;101244.75;;;24.70;69.23
10510;BME280;5303;53.266;10.410;2022-08-21T10:43:02;101227.50;;;24.51;70.65
10510;BME280;5303;53.266;10.410;2022-08-21T10:48:59;101218.78;;;24.86;68.75
10510;BME280;5303;53.266;10.410;2022-08-21T10:51:38;101218.72;;;25.03;65.74
10510;BME280;5303;53.266;10.410;2022-08-21T10:56:58;101227.09;;;25.25;67.00
10510;BME280;5303;53.266;10.410;2022-08-21T10:59:31;101224.63;;;25.29;67.16
10510;BME280;5303;53.266;10.410;2022-08-21T11:02:15;101222.94;;;25.28;64.92
10510;BME280;5303;53.266;10.410;2022-08-21T11:05:04;101222.41;;;25.31;62.83
10510;BME280;5303;53.266;10.410;2022-08-21T11:07:39;101225.53;;;25.35;63.57
10510;BME280;5303;53.266;10.410;2022-08-21T11:10:23;101225.97;;;25.26;63.87
10510;BME280;5303;53.266;10.410;2022-08-21T11:12:56;101223.34;;;25.15;64.08
10510;BME280;5303;53.266;10.410;2022-08-21T11:15:34;101219.97;;;25.13;65.31
10510;BME280;5303;53.266;10.410;2022-08-21T11:18:39;101221.13;;;24.95;64.80
10510;BME280;5303;53.266;10.410;2022-08-21T11:24:21;101218.41;;;25.22;63.16
10510;BME280;5303;53.266;10.410;2022-08-21T11:29:39;101225.81;;;25.33;62.77
10510;BME280;5303;53.266;10.410;2022-08-21T11:32:29;101217.75;;;25.37;64.07
10510;BME280;5303;53.266;10.410;2022-08-21T11:35:10;101219.22;;;25.44;63.22
10510;BME280;5303;53.266;10.410;2022-08-21T11:43:41;101229.47;;;25.66;58.00
10510;BME280;5303;53.266;10.410;2022-08-21T11:54:43;101217.19;;;25.94;54.55
10510;BME280;5303;53.266;10.410;2022-08-21T11:57:18;101234.16;;;25.87;54.66
10510;BME280;5303;53.266;10.410;2022-08-21T12:00:04;101229.44;;;25.88;54.91
10510;BME280;5303;53.266;10.410;2022-08-21T12:02:35;101223.84;;;25.88;54.27
10510;BME280;5303;53.266;10.410;2022-08-21T12:05:07;101221.50;;;25.79;54.47
10510;BME280;5303;53.266;10.410;2022-08-21T12:07:39;101220.91;;;25.77;55.68
10510;BME280;5303;53.266;10.410;2022-08-21T12:10:13;101216.03;;;25.90;53.43
10510;BME280;5303;53.266;10.410;2022-08-21T12:12:41;101211.56;;;25.89;51.57
10510;BME280;5303;53.266;10.410;2022-08-21T12:22:52;101210.09;;;26.13;49.50
10510;BME280;5303;53.266;10.410;2022-08-21T12:25:19;101212.63;;;26.15;50.06
10510;BME280;5303;53.266;10.410;2022-08-21T12:27:53;101211.19;;;26.12;51.75
10510;BME280;5303;53.266;10.410;2022-08-21T12:32:58;101219.34;;;26.19;50.33
10510;BME280;5303;53.266;10.410;2022-08-21T12:35:27;101218.81;;;26.22;49.53
10510;BME280;5303;53.266;10.410;2022-08-21T12:38:02;101214.00;;;26.12;51.87
10510;BME280;5303;53.266;10.410;2022-08-21T12:40:40;101211.44;;;26.06;52.30
10510;BME280;5303;53.266;10.410;2022-08-21T12:43:13;101208.94;;;26.09;53.41
10510;BME280;5303;53.266;10.410;2022-08-21T12:45:43;101202.59;;;26.19;52.58
10510;BME280;5303;53.266;10.410;2022-08-21T12:48:15;101210.66;;;26.15;52.66
10510;BME280;5303;53.266;10.410;2022-08-21T12:50:52;101212.91;;;26.13;51.44
10510;BME280;5303;53.266;10.410;2022-08-21T12:53:40;101217.72;;;26.23;51.54
10510;BME280;5303;53.266;10.410;2022-08-21T12:56:13;101213.44;;;26.15;53.71
10510;BME280;5303;53.266;10.410;2022-08-21T12:58:47;101212.53;;;26.05;54.85
10510;BME280;5303;53.266;10.410;2022-08-21T13:01:31;101209.22;;;26.08;54.78
10510;BME280;5303;53.266;10.410;2022-08-21T13:04:02;101208.16;;;26.14;53.33
10510;BME280;5303;53.266;10.410;2022-08-21T13:06:40;101207.16;;;26.35;53.55
10510;BME280;5303;53.266;10.410;2022-08-21T13:09:10;101204.31;;;26.25;52.29
10510;BME280;5303;53.266;10.410;2022-08-21T13:11:36;101207.41;;;26.29;51.79
10510;BME280;5303;53.266;10.410;2022-08-21T13:14:03;101213.00;;;26.29;51.37
10510;BME280;5303;53.266;10.410;2022-08-21T13:16:30;101206.25;;;26.24;51.35
10510;BME280;5303;53.266;10.410;2022-08-21T13:19:05;101202.97;;;26.33;51.85
10510;BME280;5303;53.266;10.410;2022-08-21T13:21:33;101193.97;;;26.25;50.83
10510;BME280;5303;53.266;10.410;2022-08-21T13:24:19;101199.44;;;26.47;49.70
10510;BME280;5303;53.266;10.410;2022-08-21T13:26:46;101199.84;;;26.61;49.85
10510;BME280;5303;53.266;10.410;2022-08-21T13:29:14;101194.50;;;26.60;49.50
10510;BME280;5303;53.266;10.410;2022-08-21T13:31:41;101200.13;;;26.70;50.27
10510;BME280;5303;53.266;10.410;2022-08-21T13:34:09;101199.44;;;26.47;49.51
10510;BME280;5303;53.266;10.410;2022-08-21T13:36:37;101202.47;;;26.41;50.71
10510;BME280;5303;53.266;10.410;2022-08-21T13:39:07;101203.88;;;26.43;50.05
10510;BME280;5303;53.266;10.410;2022-08-21T13:41:35;101192.34;;;26.30;50.65
10510;BME280;5303;53.266;10.410;2022-08-21T13:44:05;101205.06;;;26.15;50.94
10510;BME280;5303;53.266;10.410;2022-08-21T13:46:33;101193.91;;;26.10;50.67
10510;BME280;5303;53.266;10.410;2022-08-21T13:49:01;101198.72;;;26.20;50.91
10510;BME280;5303;53.266;10.410;2022-08-21T13:51:28;101199.97;;;26.02;50.12
10510;BME280;5303;53.266;10.410;2022-08-21T13:53:53;101189.06;;;26.00;50.98
10510;BME280;5303;53.266;10.410;2022-08-21T13:58:56;101204.06;;;26.27;51.36
10510;BME280;5303;53.266;10.410;2022-08-21T14:01:33;101204.38;;;26.35;51.04
10510;BME280;5303;53.266;10.410;2022-08-21T14:04:04;101210.53;;;26.37;51.60
10510;BME280;5303;53.266;10.410;2022-08-21T14:06:36;101206.66;;;26.43;53.25
10510;BME280;5303;53.266;10.410;2022-08-21T14:09:10;101198.66;;;26.52;50.31
10510;BME280;5303;53.266;10.410;2022-08-21T14:11:36;101197.34;;;26.70;49.53
10510;BME280;5303;53.266;10.410;2022-08-21T14:14:05;101197.72;;;26.84;50.54
10510;BME280;5303;53.266;10.410;2022-08-21T14:16:46;101199.88;;;26.71;48.85
10510;BME280;5303;53.266;10.410;2022-08-21T14:19:24;101199.91;;;26.82;49.07
10510;BME280;5303;53.266;10.410;2022-08-21T14:21:49;101199.63;;;26.78;49.92
10510;BME280;5303;53.266;10.410;2022-08-21T14:27:06;101197.34;;;26.70;49.29